Time;durP1;ratioP1;P1;durP2;ratioP2;P2;SDS_P1;SDS_P2;PMS_P1;PMS_P2;Temp;Humidity;BMP_temperature;BMP_pressure;BME280_temperature;BME280_humidity;BME280_pressure;Samples;Min_cycle;Max_cycle;Signal;HPM_P1;HPM_P2
2021/08/12 00:02:10;;;;;;;15.07;13.68;;;15.10;99.90;;;;;;5068263;28;20044;-61
2021/08/12 00:04:39;;;;;;;14.60;13.40;;;15.10;99.90;;;;;;5065388;28;20056;-60
2021/08/12 00:07:06;;;;;;;14.85;13.40;;;15.00;99.90;;;;;;5049441;28;20044;-61
2021/08/12 00:09:36;;;;;;;13.85;12.63;;;15.00;99.90;;;;;;5069653;28;20101;-59
2021/08/12 00:12:03;;;;;;;13.32;12.02;;;14.90;99.90;;;;;;5068344;28;20066;-61
2021/08/12 00:14:32;;;;;;;12.23;11.20;;;14.90;99.90;;;;;;5074101;28;20048;-60
2021/08/12 00:16:59;;;;;;;12.90;11.82;;;14.90;99.90;;;;;;5069693;28;20133;-61
2021/08/12 00:19:28;;;;;;;13.43;12.18;;;14.90;99.90;;;;;;5064010;28;20044;-61
2021/08/12 00:21:55;;;;;;;13.68;12.45;;;14.80;99.90;;;;;;5068936;28;20048;-60
2021/08/12 00:24:22;;;;;;;15.85;14.02;;;14.80;99.90;;;;;;5068552;28;20060;-62
2021/08/12 00:26:49;;;;;;;15.02;13.77;;;14.80;99.90;;;;;;5068889;28;20130;-61
2021/08/12 00:29:18;;;;;;;12.63;11.35;;;14.80;99.90;;;;;;5071368;28;20120;-61
2021/08/12 00:31:45;;;;;;;11.55;10.55;;;14.80;99.90;;;;;;5068600;28;20048;-60
2021/08/12 00:34:13;;;;;;;11.35;10.45;;;14.70;99.90;;;;;;5048256;28;20052;-61
2021/08/12 00:36:43;;;;;;;11.77;10.77;;;14.70;99.90;;;;;;5032879;28;20114;-61
2021/08/12 00:39:10;;;;;;;15.07;13.70;;;14.60;99.90;;;;;;5033456;28;20060;-61
2021/08/12 00:41:40;;;;;;;12.82;11.82;;;14.50;99.90;;;;;;5069995;28;20136;-62
2021/08/12 00:44:08;;;;;;;13.93;12.73;;;14.50;99.90;;;;;;5051420;28;20052;-61
2021/08/12 00:46:38;;;;;;;14.07;12.82;;;14.50;99.90;;;;;;5049427;28;20106;-61
2021/08/12 00:49:08;;;;;;;12.90;11.70;;;14.50;99.90;;;;;;5050212;28;20045;-62
2021/08/12 00:51:40;;;;;;;14.07;12.75;;;14.50;99.90;;;;;;5050298;28;20072;-62
2021/08/12 00:54:07;;;;;;;14.20;12.90;;;14.50;99.90;;;;;;5048359;28;20056;-63
2021/08/12 00:56:33;;;;;;;13.60;12.38;;;14.50;99.90;;;;;;5050095;28;20143;-60
2021/08/12 00:59:01;;;;;;;14.07;12.77;;;14.40;99.90;;;;;;5052372;28;20041;-61
2021/08/12 01:01:27;;;;;;;14.77;13.57;;;14.40;99.90;;;;;;5043707;28;20109;-60
2021/08/12 01:03:59;;;;;;;12.68;11.57;;;14.40;99.90;;;;;;5067567;28;20044;-59
2021/08/12 01:06:52;;;;;;;13.20;12.10;;;14.40;99.90;;;;;;5067430;28;20064;-59
2021/08/12 01:09:42;;;;;;;12.27;11.27;;;14.30;99.90;;;;;;5031545;28;20060;-59
2021/08/12 01:12:23;;;;;;;11.40;10.50;;;14.30;99.90;;;;;;5060583;28;20053;-60
2021/08/12 01:15:04;;;;;;;10.68;9.85;;;14.20;99.90;;;;;;5072855;28;20075;-61
2021/08/12 01:17:46;;;;;;;10.75;9.77;;;14.30;99.90;;;;;;5049057;28;20149;-60
2021/08/12 01:20:33;;;;;;;9.27;8.50;;;14.20;99.90;;;;;;5051423;28;20068;-60
2021/08/12 01:23:05;;;;;;;13.60;12.40;;;14.10;99.90;;;;;;5032350;28;20121;-61
2021/08/12 01:25:34;;;;;;;15.75;14.38;;;14.10;99.90;;;;;;5044683;28;20072;-60
2021/08/12 01:28:23;;;;;;;13.52;12.43;;;14.10;99.90;;;;;;5048907;28;20044;-61
2021/08/12 01:31:21;;;;;;;13.30;12.15;;;14.10;99.90;;;;;;5044788;28;20135;-60
2021/08/12 01:34:11;;;;;;;13.18;11.98;;;14.00;99.90;;;;;;5063167;28;20063;-60
2021/08/12 01:36:41;;;;;;;13.05;11.82;;;14.00;99.90;;;;;;5068609;28;20106;-61
2021/08/12 01:39:11;;;;;;;12.65;11.55;;;13.90;99.90;;;;;;5054374;28;20138;-58
2021/08/12 01:41:41;;;;;;;12.10;11.07;;;13.90;99.90;;;;;;5074865;28;20036;-60
2021/08/12 01:44:13;;;;;;;10.95;9.95;;;13.90;99.90;;;;;;5051099;28;20075;-60
2021/08/12 01:46:40;;;;;;;13.07;11.87;;;13.90;99.90;;;;;;5047768;28;20053;-62
2021/08/12 01:49:07;;;;;;;13.30;12.20;;;13.90;99.90;;;;;;5060716;28;20053;-61
2021/08/12 01:51:43;;;;;;;13.73;12.52;;;13.90;99.90;;;;;;5050436;28;20127;-61
2021/08/12 01:54:12;;;;;;;14.05;12.70;;;13.90;99.90;;;;;;5051957;28;20071;-61
2021/08/12 01:56:41;;;;;;;13.68;12.48;;;13.90;99.90;;;;;;5050836;28;20058;-61
2021/08/12 01:59:15;;;;;;;52.28;13.80;;;13.90;99.90;;;;;;5050921;28;20104;-61
2021/08/12 02:01:46;;;;;;;12.27;11.18;;;13.90;99.90;;;;;;5032782;28;20059;-63
2021/08/12 02:04:17;;;;;;;12.65;11.65;;;13.90;99.90;;;;;;5058719;28;20056;-61
2021/08/12 02:06:50;;;;;;;11.80;10.80;;;13.80;99.90;;;;;;5060909;28;20106;-63
2021/08/12 02:09:20;;;;;;;13.68;12.38;;;13.90;99.90;;;;;;5042118;28;20059;-61
2021/08/12 02:11:49;;;;;;;17.65;16.00;;;13.90;99.90;;;;;;5050690;28;20068;-63
2021/08/12 02:14:16;;;;;;;21.27;19.40;;;14.00;99.90;;;;;;5050489;28;20049;-62
2021/08/12 02:16:43;;;;;;;18.55;17.02;;;14.00;99.90;;;;;;5068915;28;20075;-61
2021/08/12 02:19:15;;;;;;;19.92;18.08;;;14.00;99.90;;;;;;5049587;28;20098;-61
2021/08/12 02:21:49;;;;;;;18.88;17.25;;;14.00;99.90;;;;;;5051398;28;20056;-61
2021/08/12 02:24:30;;;;;;;19.13;17.52;;;14.10;99.90;;;;;;5069916;28;20056;-61
2021/08/12 02:27:08;;;;;;;18.80;17.05;;;14.00;99.90;;;;;;5051391;28;20078;-62
2021/08/12 02:29:35;;;;;;;18.10;16.48;;;14.00;99.90;;;;;;5069796;28;20048;-60
2021/08/12 02:32:08;;;;;;;20.80;18.92;;;14.00;99.90;;;;;;5069284;28;20044;-61
2021/08/12 02:34:39;;;;;;;19.33;17.48;;;14.00;99.90;;;;;;5069822;28;20463;-61
2021/08/12 02:37:08;;;;;;;17.92;16.35;;;14.00;99.90;;;;;;5076555;28;20128;-60
2021/08/12 02:39:40;;;;;;;18.35;16.55;;;14.00;99.90;;;;;;5050830;28;20516;-60
2021/08/12 02:42:09;;;;;;;16.55;15.15;;;14.00;99.90;;;;;;5068551;28;20060;-61
2021/08/12 02:44:38;;;;;;;18.30;16.60;;;14.00;99.90;;;;;;5051027;28;20626;-62
2021/08/12 02:47:09;;;;;;;19.17;17.38;;;14.00;99.90;;;;;;5068443;28;20145;-60
2021/08/12 02:49:46;;;;;;;26.95;20.67;;;14.00;99.90;;;;;;5050646;28;20053;-62
2021/08/12 02:52:14;;;;;;;19.00;17.35;;;14.00;99.90;;;;;;5050701;28;20048;-61
2021/08/12 02:54:43;;;;;;;19.27;17.48;;;14.00;99.90;;;;;;5051244;28;20074;-62
2021/08/12 02:57:13;;;;;;;19.38;17.67;;;13.90;99.90;;;;;;5068676;28;20511;-61
2021/08/12 02:59:45;;;;;;;20.50;18.60;;;13.90;99.90;;;;;;5068610;28;20055;-61
2021/08/12 03:02:12;;;;;;;18.77;17.17;;;13.90;99.90;;;;;;5068788;28;20097;-62
2021/08/12 03:04:42;;;;;;;19.52;17.80;;;13.90;99.90;;;;;;5034027;28;20056;-61
2021/08/12 03:07:20;;;;;;;18.40;16.80;;;13.90;99.90;;;;;;5076037;28;20053;-61
2021/08/12 03:09:51;;;;;;;18.88;17.17;;;13.90;99.90;;;;;;5034247;28;20110;-62
2021/08/12 03:12:19;;;;;;;19.20;17.52;;;13.90;99.90;;;;;;5068548;28;20048;-60
2021/08/12 03:14:52;;;;;;;18.00;16.17;;;13.90;99.90;;;;;;5046678;28;20052;-62
2021/08/12 03:17:20;;;;;;;18.30;16.70;;;13.90;99.90;;;;;;5049033;28;20080;-62
2021/08/12 03:19:50;;;;;;;17.02;15.52;;;13.90;99.90;;;;;;5030465;28;20048;-62
2021/08/12 03:22:16;;;;;;;18.25;16.52;;;13.90;99.90;;;;;;5031245;28;20496;-62
2021/08/12 03:24:48;;;;;;;19.20;17.55;;;13.80;99.90;;;;;;5063733;28;20400;-62
2021/08/12 03:27:16;;;;;;;24.27;22.00;;;13.80;99.90;;;;;;5068345;28;20552;-61
2021/08/12 03:29:48;;;;;;;22.10;20.13;;;13.80;99.90;;;;;;5050421;28;20040;-62
2021/08/12 03:32:19;;;;;;;22.98;20.98;;;13.80;99.90;;;;;;5054670;28;20056;-62
2021/08/12 03:34:48;;;;;;;23.15;21.00;;;13.80;99.90;;;;;;5054198;28;20044;-60
2021/08/12 03:37:16;;;;;;;21.88;19.92;;;13.90;99.90;;;;;;5050846;28;20041;-62
2021/08/12 03:39:45;;;;;;;21.00;18.65;;;13.80;99.90;;;;;;5052036;28;20106;-61
2021/08/12 03:42:16;;;;;;;20.67;18.98;;;13.80;99.90;;;;;;5036850;28;20497;-61
2021/08/12 03:44:45;;;;;;;24.40;22.20;;;13.80;99.90;;;;;;5056535;28;20052;-63
2021/08/12 03:47:14;;;;;;;24.30;22.20;;;13.90;99.90;;;;;;5072246;28;20151;-61
2021/08/12 03:49:41;;;;;;;24.55;22.45;;;13.90;99.90;;;;;;5056923;28;20051;-62
2021/08/12 03:52:07;;;;;;;25.23;22.95;;;13.90;99.90;;;;;;5034776;28;20647;-62
2021/08/12 03:54:37;;;;;;;27.23;24.60;;;13.90;99.90;;;;;;5053446;28;20062;-60
2021/08/12 03:57:06;;;;;;;31.65;28.80;;;13.90;99.90;;;;;;5053601;28;20186;-61
2021/08/12 03:59:33;;;;;;;32.50;29.70;;;13.90;99.90;;;;;;5053826;28;20453;-61
2021/08/12 04:02:02;;;;;;;32.00;29.10;;;14.00;99.90;;;;;;5055741;28;20169;-61
2021/08/12 04:04:31;;;;;;;31.90;28.70;;;14.00;99.90;;;;;;5034219;28;20057;-61
2021/08/12 04:06:57;;;;;;;30.70;27.90;;;14.00;99.90;;;;;;5053372;28;20079;-61
2021/08/12 04:09:24;;;;;;;29.33;26.65;;;14.00;99.90;;;;;;5071015;28;20045;-61
2021/08/12 04:11:51;;;;;;;31.48;28.38;;;14.00;99.90;;;;;;5049864;28;20071;-60
2021/08/12 04:14:18;;;;;;;31.80;28.55;;;14.00;99.90;;;;;;5057899;28;20045;-61
2021/08/12 04:16:45;;;;;;;32.05;29.00;;;14.00;99.90;;;;;;5051609;28;20190;-61
2021/08/12 04:19:16;;;;;;;31.80;28.90;;;14.00;99.90;;;;;;5032743;28;20067;-59
2021/08/12 04:21:43;;;;;;;29.52;26.83;;;14.00;99.90;;;;;;5033376;28;20060;-57
2021/08/12 04:24:09;;;;;;;31.13;28.40;;;14.00;99.90;;;;;;5060782;28;20132;-56
2021/08/12 04:26:36;;;;;;;32.08;29.00;;;14.00;99.90;;;;;;5063546;28;20047;-56
2021/08/12 04:29:06;;;;;;;29.98;27.17;;;14.00;99.90;;;;;;5060209;28;20400;-57
2021/08/12 04:31:32;;;;;;;31.33;28.52;;;14.10;99.90;;;;;;5058960;28;20056;-56
2021/08/12 04:33:59;;;;;;;30.52;27.63;;;14.10;99.90;;;;;;5033836;28;20562;-56
2021/08/12 04:36:25;;;;;;;32.40;29.58;;;14.10;99.90;;;;;;5041154;28;20051;-57
2021/08/12 04:38:54;;;;;;;30.67;27.90;;;14.30;99.90;;;;;;5060253;28;20051;-57
2021/08/12 04:41:28;;;;;;;30.02;26.95;;;14.40;99.90;;;;;;5064898;28;20049;-56
2021/08/12 04:43:56;;;;;;;27.83;25.10;;;14.50;99.90;;;;;;5056054;28;20052;-57
2021/08/12 04:46:25;;;;;;;26.52;24.00;;;14.50;99.90;;;;;;5056161;28;20076;-56
2021/08/12 04:48:52;;;;;;;28.90;25.98;;;14.70;99.90;;;;;;5066999;28;20113;-56
2021/08/12 04:51:18;;;;;;;27.58;25.05;;;14.70;99.90;;;;;;5045943;28;20211;-56
2021/08/12 04:53:45;;;;;;;27.60;24.88;;;14.80;99.90;;;;;;5055424;28;20132;-56
2021/08/12 04:56:14;;;;;;;27.85;24.98;;;14.90;99.90;;;;;;5059899;28;20182;-55
2021/08/12 04:58:42;;;;;;;32.42;29.35;;;14.90;99.90;;;;;;5041641;28;20086;-56
2021/08/12 05:01:09;;;;;;;30.77;27.77;;;14.90;99.90;;;;;;5042193;28;20083;-56
2021/08/12 05:03:38;;;;;;;33.75;30.38;;;14.90;99.90;;;;;;5045714;28;20048;-54
2021/08/12 05:06:10;;;;;;;32.60;29.58;;;14.90;99.90;;;;;;5062991;28;20491;-54
2021/08/12 05:08:37;;;;;;;58.20;52.20;;;14.80;99.90;;;;;;5036048;28;20094;-55
2021/08/12 05:11:10;;;;;;;102.30;91.78;;;14.90;99.90;;;;;;5047789;28;20044;-55
2021/08/12 05:13:47;;;;;;;34.08;30.73;;;15.00;99.90;;;;;;5042836;28;20048;-55
2021/08/12 05:16:13;;;;;;;34.28;30.83;;;15.10;99.90;;;;;;5073547;28;20492;-54
2021/08/12 05:18:44;;;;;;;34.40;31.00;;;15.00;99.90;;;;;;5057238;28;20044;-54
2021/08/12 05:21:11;;;;;;;31.48;28.20;;;15.00;99.90;;;;;;5051029;28;20036;-53
2021/08/12 05:23:42;;;;;;;31.55;28.63;;;15.00;99.90;;;;;;5051047;28;20076;-50
2021/08/12 05:26:08;;;;;;;31.63;28.63;;;15.00;99.90;;;;;;5071085;28;20040;-51
2021/08/12 05:28:43;;;;;;;31.58;28.48;;;15.10;99.90;;;;;;5049214;28;20313;-56
2021/08/12 05:31:10;;;;;;;34.78;31.38;;;15.10;99.90;;;;;;5047112;28;20079;-50
2021/08/12 05:33:37;;;;;;;34.35;30.98;;;15.10;99.90;;;;;;5029573;28;20054;-52
2021/08/12 05:36:04;;;;;;;32.85;29.80;;;15.10;99.90;;;;;;5068476;28;20076;-53
2021/08/12 05:38:31;;;;;;;50.25;45.15;;;15.10;99.90;;;;;;5050765;28;20087;-52
2021/08/12 05:40:59;;;;;;;43.92;39.35;;;15.30;99.90;;;;;;5052039;28;20504;-52
2021/08/12 05:43:25;;;;;;;35.22;31.75;;;15.20;99.90;;;;;;5060634;28;20041;-50
2021/08/12 05:45:53;;;;;;;32.50;29.17;;;15.20;99.90;;;;;;5047153;28;20057;-51
2021/08/12 05:48:20;;;;;;;38.30;34.53;;;15.30;99.90;;;;;;5049813;28;20486;-51
2021/08/12 05:50:48;;;;;;;36.40;33.03;;;15.20;99.90;;;;;;5038187;28;20059;-49
2021/08/12 05:53:18;;;;;;;34.65;31.38;;;15.40;99.90;;;;;;5068467;28;20048;-52
2021/08/12 05:55:48;;;;;;;44.00;39.65;;;15.50;99.90;;;;;;5050053;28;20063;-54
2021/08/12 05:58:17;;;;;;;34.60;31.38;;;15.50;99.90;;;;;;5050457;28;20095;-54
2021/08/12 06:00:44;;;;;;;36.80;33.30;;;15.60;99.90;;;;;;4973847;28;2095191;-52
2021/08/12 06:03:13;;;;;;;37.00;33.60;;;15.70;99.90;;;;;;5071732;28;20097;-51
2021/08/12 06:05:42;;;;;;;34.28;30.85;;;15.80;99.90;;;;;;5069594;28;20051;-49
2021/08/12 06:08:11;;;;;;;32.72;29.70;;;15.90;99.90;;;;;;5074292;28;20048;-56
2021/08/12 06:10:41;;;;;;;30.42;27.23;;;15.90;99.90;;;;;;5071455;28;20051;-55
2021/08/12 06:13:12;;;;;;;30.52;27.58;;;16.00;99.90;;;;;;5070793;28;20048;-57
2021/08/12 06:15:41;;;;;;;38.50;35.00;;;16.10;99.90;;;;;;5066727;28;20083;-56
2021/08/12 06:18:11;;;;;;;36.70;33.22;;;16.30;99.90;;;;;;5070130;28;20055;-58
2021/08/12 06:20:40;;;;;;;29.65;26.77;;;16.60;99.90;;;;;;5069721;28;20052;-56
2021/08/12 06:23:12;;;;;;;28.65;26.05;;;16.80;99.90;;;;;;5068552;28;20052;-57
2021/08/12 06:25:42;;;;;;;31.70;28.88;;;17.10;99.90;;;;;;5069252;28;20048;-56
2021/08/12 06:28:13;;;;;;;26.67;24.17;;;17.20;99.90;;;;;;5076378;28;20389;-57
2021/08/12 06:30:40;;;;;;;67.20;60.28;;;17.10;99.90;;;;;;5067590;28;20054;-56
2021/08/12 06:33:12;;;;;;;28.98;26.17;;;17.20;99.90;;;;;;5087477;28;20066;-56
2021/08/12 06:35:45;;;;;;;26.48;23.95;;;17.20;99.90;;;;;;5071311;28;20056;-56
2021/08/12 06:38:12;;;;;;;44.38;39.75;;;17.20;99.90;;;;;;5070195;28;20393;-56
2021/08/12 06:40:41;;;;;;;36.72;33.13;;;17.30;99.90;;;;;;5070085;28;20048;-56
2021/08/12 06:43:10;;;;;;;26.83;24.23;;;17.40;99.90;;;;;;5087788;28;20496;-56
2021/08/12 06:45:55;;;;;;;48.28;43.28;;;17.40;99.90;;;;;;5088112;28;20136;-57
2021/08/12 06:48:23;;;;;;;26.92;24.35;;;17.40;99.90;;;;;;5088739;28;20061;-57
2021/08/12 06:50:54;;;;;;;27.10;24.27;;;17.60;99.90;;;;;;5073735;28;20454;-59
2021/08/12 06:53:22;;;;;;;25.20;22.52;;;17.90;99.90;;;;;;5069714;28;20095;-58
2021/08/12 06:55:52;;;;;;;23.35;20.85;;;18.30;99.90;;;;;;5050214;28;20086;-57
2021/08/12 06:58:21;;;;;;;25.10;22.70;;;18.70;99.90;;;;;;5069309;28;20077;-58
2021/08/12 07:00:49;;;;;;;20.88;18.77;;;19.10;99.90;;;;;;5069951;28;20059;-58
2021/08/12 07:03:21;;;;;;;22.55;20.52;;;19.70;99.90;;;;;;5061533;28;20056;-58
2021/08/12 07:05:50;;;;;;;41.45;37.53;;;20.00;99.90;;;;;;5083856;28;20498;-59
2021/08/12 07:08:21;;;;;;;31.00;27.85;;;20.30;99.90;;;;;;5084004;28;20047;-58
2021/08/12 07:10:50;;;;;;;79.78;71.93;;;20.80;99.90;;;;;;5082817;28;20617;-58
2021/08/12 07:13:17;;;;;;;20.38;18.38;;;21.10;99.90;;;;;;5060684;28;20500;-59
2021/08/12 07:15:44;;;;;;;19.73;17.77;;;21.30;99.90;;;;;;5072034;28;20048;-58
2021/08/12 07:18:10;;;;;;;20.85;18.67;;;22.00;99.90;;;;;;5091760;28;20044;-59
2021/08/12 07:20:38;;;;;;;19.40;17.45;;;22.40;99.90;;;;;;5071703;28;20063;-59
2021/08/12 07:23:05;;;;;;;20.13;18.15;;;22.30;99.90;;;;;;5066726;28;20488;-59
2021/08/12 07:25:33;;;;;;;18.77;17.02;;;22.10;99.90;;;;;;5088464;28;20056;-59
2021/08/12 07:28:03;;;;;;;19.92;18.15;;;21.80;99.90;;;;;;5091309;28;20167;-59
2021/08/12 07:30:29;;;;;;;22.90;20.67;;;21.90;99.90;;;;;;5072595;28;20071;-57
2021/08/12 07:32:55;;;;;;;20.88;18.85;;;21.80;99.90;;;;;;5056359;28;20450;-59
2021/08/12 07:35:22;;;;;;;19.58;17.58;;;22.10;99.90;;;;;;5072603;28;20048;-57
2021/08/12 07:37:52;;;;;;;19.02;17.13;;;22.20;99.90;;;;;;5070083;28;20048;-58
2021/08/12 07:40:26;;;;;;;18.60;16.88;;;22.30;99.90;;;;;;5070413;28;20052;-58
2021/08/12 07:42:53;;;;;;;22.77;19.63;;;22.40;99.90;;;;;;5090568;28;20056;-59
2021/08/12 07:45:25;;;;;;;29.20;21.30;;;22.20;99.90;;;;;;5090887;28;20067;-58
2021/08/12 07:47:57;;;;;;;19.98;17.95;;;22.10;99.90;;;;;;5072144;28;20166;-58
2021/08/12 07:50:23;;;;;;;18.23;16.42;;;22.20;99.90;;;;;;5091284;28;20050;-57
2021/08/12 07:52:55;;;;;;;20.30;18.13;;;22.20;99.90;;;;;;5090338;28;20138;-58
2021/08/12 07:55:22;;;;;;;22.45;20.13;;;22.70;99.90;;;;;;5073599;28;20064;-60
2021/08/12 07:57:51;;;;;;;17.63;15.73;;;23.00;99.90;;;;;;5085855;28;20044;-59
2021/08/12 08:00:18;;;;;;;19.77;17.92;;;23.40;99.90;;;;;;5071546;28;20044;-59
2021/08/12 08:02:48;;;;;;;18.23;16.42;;;23.40;99.90;;;;;;5090026;28;20386;-59
2021/08/12 08:05:16;;;;;;;18.90;17.00;;;23.30;99.90;;;;;;5090288;28;20052;-59
2021/08/12 08:07:47;;;;;;;17.40;15.80;;;23.10;99.90;;;;;;5071074;28;20306;-59
2021/08/12 08:10:17;;;;;;;16.48;14.90;;;22.90;99.90;;;;;;5070952;28;20052;-57
2021/08/12 08:12:43;;;;;;;15.82;14.32;;;22.80;99.90;;;;;;5059802;28;20884;-58
2021/08/12 08:15:11;;;;;;;15.90;14.48;;;22.80;99.90;;;;;;5089752;28;20044;-59
2021/08/12 08:17:37;;;;;;;16.02;14.25;;;23.00;99.90;;;;;;5090122;28;20048;-59
2021/08/12 08:20:08;;;;;;;16.05;14.40;;;23.20;99.90;;;;;;5091910;28;20135;-59
2021/08/12 08:22:35;;;;;;;;;;;23.60;99.90;;;;;;5090378;28;20188;-59
2021/08/12 08:25:05;;;;;;;15.43;13.88;;;23.40;99.10;;;;;;5093767;28;19964;-59
2021/08/12 08:27:35;;;;;;;;;;;23.70;96.70;;;;;;5079129;28;20086;-60
2021/08/12 08:30:03;;;;;;;13.05;11.75;;;23.90;96.10;;;;;;5091295;28;19924;-60
2021/08/12 08:32:32;;;;;;;13.35;11.95;;;24.40;97.00;;;;;;5090518;28;20048;-59
2021/08/12 08:35:02;;;;;;;12.75;10.90;;;24.90;93.40;;;;;;5089610;28;20052;-59
2021/08/12 08:37:29;;;;;;;;;;;25.20;91.70;;;;;;5089468;28;20131;-61
2021/08/12 08:39:57;;;;;;;10.00;8.57;;;25.10;85.50;;;;;;5077024;28;19964;-60
2021/08/12 08:42:23;;;;;;;9.10;7.35;;;25.70;92.40;;;;;;5070933;28;20049;-60
2021/08/12 08:44:53;;;;;;;8.88;7.82;;;26.00;87.70;;;;;;5073000;28;20056;-60
2021/08/12 08:47:21;;;;;;;10.27;7.15;;;26.10;79.60;;;;;;5092556;28;20054;-60
2021/08/12 08:49:48;;;;;;;8.88;7.25;;;25.90;77.70;;;;;;5093337;28;20403;-62
2021/08/12 08:52:15;;;;;;;8.18;6.80;;;26.00;72.10;;;;;;5095003;28;20061;-59
2021/08/12 08:54:43;;;;;;;7.63;6.82;;;25.90;72.70;;;;;;5089167;28;20044;-61
2021/08/12 08:57:12;;;;;;;24.75;22.35;;;26.00;73.40;;;;;;5097906;28;20048;-60
2021/08/12 08:59:38;;;;;;;8.95;8.00;;;26.30;71.60;;;;;;5089975;28;20044;-60
2021/08/12 09:02:07;;;;;;;17.98;12.35;;;26.70;72.60;;;;;;5090332;28;20048;-62
2021/08/12 09:04:36;;;;;;;13.25;11.77;;;26.80;64.70;;;;;;5093352;28;20038;-62
2021/08/12 09:07:04;;;;;;;8.68;6.90;;;26.50;66.30;;;;;;5075675;28;20094;-62
2021/08/12 09:09:34;;;;;;;7.90;6.50;;;27.00;66.80;;;;;;5097050;28;20119;-63
2021/08/12 09:12:05;;;;;;;10.82;8.77;;;27.00;64.60;;;;;;5090439;28;20067;-63
2021/08/12 09:14:42;;;;;;;10.27;8.20;;;27.10;61.10;;;;;;5089449;28;20154;-63
2021/08/12 09:17:23;;;;;;;6.72;4.43;;;27.20;58.80;;;;;;5093784;28;20052;-62
2021/08/12 09:19:59;;;;;;;8.52;5.53;;;27.30;58.90;;;;;;5071790;28;20059;-63
2021/08/12 09:22:28;;;;;;;11.15;6.35;;;27.10;59.30;;;;;;5090048;28;20052;-62
2021/08/12 09:24:56;;;;;;;9.48;7.13;;;26.90;60.20;;;;;;5097019;28;20480;-63
2021/08/12 09:27:24;;;;;;;12.70;11.23;;;27.10;61.40;;;;;;5088969;28;20511;-63
2021/08/12 09:30:12;;;;;;;8.65;7.28;;;27.40;61.90;;;;;;5092292;28;20047;-64
2021/08/12 09:32:49;;;;;;;10.00;8.93;;;27.70;61.90;;;;;;5089966;28;20048;-63
2021/08/12 09:35:26;;;;;;;10.13;9.07;;;28.20;59.90;;;;;;5081718;28;20052;-65
2021/08/12 09:38:06;;;;;;;11.90;10.80;;;27.90;59.00;;;;;;5087313;28;20052;-63
2021/08/12 09:40:32;;;;;;;12.32;11.10;;;27.80;60.40;;;;;;5088919;28;20507;-61
2021/08/12 09:43:01;;;;;;;11.32;8.88;;;27.90;60.00;;;;;;5089364;28;20058;-60
2021/08/12 09:45:29;;;;;;;17.65;15.85;;;28.00;60.70;;;;;;5089013;28;20129;-66
2021/08/12 09:48:08;;;;;;;9.75;8.75;;;28.10;60.70;;;;;;5069001;28;20052;-65
2021/08/12 09:50:35;;;;;;;9.77;8.35;;;27.90;59.80;;;;;;5090906;28;20044;-64
2021/08/12 09:53:03;;;;;;;11.77;10.20;;;27.80;58.20;;;;;;5088868;28;20666;-67
2021/08/12 09:55:38;;;;;;;11.52;7.55;;;28.10;59.30;;;;;;5093422;28;20052;-67
2021/08/12 09:58:08;;;;;;;9.68;7.15;;;28.30;58.70;;;;;;5079520;28;20048;-65
2021/08/12 10:00:42;;;;;;;8.40;6.53;;;28.40;58.20;;;;;;5090035;28;20101;-67
2021/08/12 10:03:32;;;;;;;9.90;6.28;;;27.80;57.50;;;;;;5084883;28;20048;-65
2021/08/12 10:06:00;;;;;;;7.97;5.32;;;28.00;58.50;;;;;;5090286;28;20052;-67
2021/08/12 10:08:29;;;;;;;7.55;6.00;;;28.50;59.00;;;;;;5071115;28;20118;-67
2021/08/12 10:10:57;;;;;;;7.38;4.82;;;28.70;58.90;;;;;;5090348;28;20479;-67
2021/08/12 10:13:24;;;;;;;8.30;5.60;;;28.90;58.40;;;;;;5086172;28;20047;-64
2021/08/12 10:15:51;;;;;;;7.07;5.40;;;29.00;56.30;;;;;;5090820;28;20621;-69
2021/08/12 10:18:19;;;;;;;7.57;6.00;;;29.00;55.30;;;;;;5089010;28;20051;-65
2021/08/12 10:20:47;;;;;;;32.63;29.63;;;28.40;56.40;;;;;;5093137;28;20457;-63
2021/08/12 10:23:15;;;;;;;8.13;6.68;;;28.70;55.80;;;;;;5089117;28;20052;-61
2021/08/12 10:25:43;;;;;;;10.85;7.47;;;28.50;54.70;;;;;;5088189;28;20143;-62
2021/08/12 10:28:11;;;;;;;10.98;9.88;;;28.90;56.40;;;;;;5087841;28;20101;-62
2021/08/12 10:30:40;;;;;;;9.32;6.82;;;29.20;56.30;;;;;;5089337;28;20543;-61
2021/08/12 10:33:09;;;;;;;19.55;17.75;;;29.30;55.20;;;;;;5092156;28;20047;-59
2021/08/12 10:35:37;;;;;;;9.85;8.85;;;29.20;54.40;;;;;;5087867;28;20067;-59
2021/08/12 10:38:05;;;;;;;8.65;7.55;;;29.40;53.90;;;;;;5091800;28;20048;-59
2021/08/12 10:40:36;;;;;;;9.73;7.03;;;28.70;53.80;;;;;;5088834;28;20385;-59
2021/08/12 10:43:04;;;;;;;8.75;7.38;;;28.70;54.50;;;;;;5088926;28;20040;-59
2021/08/12 10:45:31;;;;;;;10.73;8.52;;;29.20;55.70;;;;;;5068380;28;20072;-59
2021/08/12 10:47:59;;;;;;;7.20;5.95;;;29.20;54.80;;;;;;5081581;28;20036;-61
2021/08/12 10:50:27;;;;;;;7.68;6.28;;;29.20;53.70;;;;;;5088760;28;20044;-61
2021/08/12 10:53:09;;;;;;;10.43;6.80;;;29.60;54.30;;;;;;5070981;28;20499;-58
2021/08/12 10:55:38;;;;;;;7.43;4.80;;;29.50;53.50;;;;;;5087988;28;20151;-61
2021/08/12 11:01:11;;;;;;;5.95;4.20;;;28.90;50.90;;;;;;5091547;28;20055;-60
2021/08/12 11:03:43;;;;;;;6.75;4.75;;;29.30;54.50;;;;;;5087765;28;20063;-61
2021/08/12 11:06:19;;;;;;;6.82;4.13;;;29.30;53.00;;;;;;5069609;28;20048;-62
2021/08/12 11:08:58;;;;;;;5.43;4.00;;;29.60;53.00;;;;;;5088299;28;20499;-60
2021/08/12 11:11:30;;;;;;;6.53;4.28;;;29.30;50.80;;;;;;5089268;28;20040;-61
2021/08/12 11:14:04;;;;;;;5.97;3.92;;;29.40;50.70;;;;;;5088611;28;20052;-62
2021/08/12 11:16:42;;;;;;;6.00;4.00;;;29.30;50.50;;;;;;5087934;28;20036;-63
2021/08/12 11:19:27;;;;;;;5.28;3.80;;;29.60;50.40;;;;;;5088276;28;20409;-61
2021/08/12 11:21:55;;;;;;;5.45;3.80;;;29.50;51.70;;;;;;5070589;28;20059;-62
2021/08/12 11:24:24;;;;;;;5.18;4.03;;;29.80;50.80;;;;;;5087910;28;20055;-62
2021/08/12 11:26:51;;;;;;;4.97;3.75;;;30.10;50.60;;;;;;5095351;28;20135;-61
2021/08/12 11:29:34;;;;;;;5.40;4.05;;;30.20;50.80;;;;;;5088746;28;20040;-61
2021/08/12 11:32:10;;;;;;;6.53;4.38;;;30.20;50.30;;;;;;5070790;28;20040;-63
2021/08/12 11:34:52;;;;;;;7.43;4.63;;;30.40;49.50;;;;;;5087076;28;20044;-62
2021/08/12 11:37:25;;;;;;;6.38;5.13;;;30.40;50.30;;;;;;5087615;28;20052;-64
2021/08/12 11:39:58;;;;;;;6.68;4.82;;;30.40;49.50;;;;;;5087820;28;20515;-61
2021/08/12 11:42:30;;;;;;;9.02;5.18;;;30.30;48.70;;;;;;5088061;28;20054;-61
2021/08/12 11:44:59;;;;;;;8.10;4.97;;;30.40;50.30;;;;;;5094731;28;20040;-61
2021/08/12 11:47:26;;;;;;;8.35;5.28;;;30.20;50.10;;;;;;5088097;28;20063;-62
2021/08/12 11:49:55;;;;;;;5.57;4.97;;;30.30;50.20;;;;;;5089696;28;20040;-62
2021/08/12 11:52:48;;;;;;;5.95;4.65;;;30.10;49.20;;;;;;5076295;28;20052;-62
2021/08/12 11:55:24;;;;;;;6.65;5.28;;;30.40;50.50;;;;;;5072930;28;20063;-63
2021/08/12 11:57:53;;;;;;;7.15;5.18;;;30.30;49.40;;;;;;5073237;28;20040;-62
2021/08/12 12:00:35;;;;;;;8.52;5.70;;;30.00;50.90;;;;;;5098464;28;20066;-60
2021/08/12 12:03:04;;;;;;;7.57;4.85;;;29.70;50.20;;;;;;5098571;28;20032;-61
2021/08/12 12:05:31;;;;;;;7.28;6.03;;;29.10;52.10;;;;;;5092574;28;20044;-61
2021/08/12 12:08:05;;;;;;;7.72;5.43;;;29.40;52.10;;;;;;5073107;28;20067;-62
2021/08/12 12:10:32;;;;;;;7.45;5.28;;;29.40;52.70;;;;;;5095277;28;20145;-63
2021/08/12 12:13:20;;;;;;;7.85;5.45;;;29.50;52.50;;;;;;5091545;28;20574;-63
2021/08/12 12:15:52;;;;;;;7.50;5.97;;;30.30;51.00;;;;;;5098012;28;20396;-62
2021/08/12 12:18:44;;;;;;;7.72;5.85;;;29.80;50.90;;;;;;5098646;28;20056;-62
2021/08/12 12:21:17;;;;;;;7.55;5.55;;;29.50;50.80;;;;;;5055131;28;20049;-64
2021/08/12 12:23:47;;;;;;;7.13;5.82;;;29.30;52.70;;;;;;5071471;28;20055;-60
2021/08/12 12:26:29;;;;;;;6.95;5.20;;;29.70;52.70;;;;;;5075034;28;20052;-61
2021/08/12 12:28:55;;;;;;;8.38;5.70;;;30.20;52.60;;;;;;5072185;28;20052;-61
2021/08/12 12:31:22;;;;;;;9.35;6.55;;;30.50;51.40;;;;;;5090636;28;20475;-62
2021/08/12 12:33:56;;;;;;;7.28;6.32;;;30.40;50.20;;;;;;5073666;28;20044;-61
2021/08/12 12:36:25;;;;;;;8.25;5.63;;;30.40;51.40;;;;;;5073991;28;20354;-61
2021/08/12 12:38:52;;;;;;;6.78;5.32;;;30.10;51.30;;;;;;5089810;28;20062;-63
2021/08/12 12:41:22;;;;;;;8.38;5.80;;;30.40;51.50;;;;;;5091312;28;20535;-61
2021/08/12 12:43:48;;;;;;;7.82;5.38;;;30.30;50.80;;;;;;5091435;28;20048;-63
2021/08/12 12:46:29;;;;;;;8.57;7.13;;;30.10;50.80;;;;;;5091636;28;20147;-61
2021/08/12 12:48:55;;;;;;;9.43;7.68;;;30.20;51.30;;;;;;5090518;28;20047;-62
2021/08/12 12:51:28;;;;;;;16.30;14.68;;;30.40;51.10;;;;;;5091353;28;20040;-62
2021/08/12 12:53:54;;;;;;;10.75;9.65;;;30.40;50.90;;;;;;5068885;28;20182;-60